Time;durP1;ratioP1;P1;durP2;ratioP2;P2;SDS_P1;SDS_P2;PMS_P1;PMS_P2;Temp;Humidity;BMP_temperature;BMP_pressure;BME280_temperature;BME280_humidity;BME280_pressure;Samples;Min_cycle;Max_cycle;Signal;HPM_P1;HPM_P2
2023/06/14 00:00:44;;;;;;;3.42;1.10;;;14.60;11.20;;;;;;5136015;27;20091;-28
2023/06/14 00:03:11;;;;;;;2.38;1.20;;;14.50;27.30;;;;;;5117842;27;20083;-28
2023/06/14 00:05:42;;;;;;;4.07;1.60;;;14.50;49.60;;;;;;5135721;27;20043;-28
2023/06/14 00:08:11;;;;;;;4.70;1.52;;;14.50;99.90;;;;;;5135271;27;20039;-27
2023/06/14 00:10:37;;;;;;;2.65;1.27;;;14.40;99.90;;;;;;5135075;27;20241;-27
2023/06/14 00:13:04;;;;;;;5.05;1.50;;;14.40;99.90;;;;;;5134963;27;20558;-27
2023/06/14 00:15:31;;;;;;;4.10;1.48;;;14.30;99.90;;;;;;5117190;27;20129;-27
2023/06/14 00:18:00;;;;;;;3.15;2.13;;;14.30;1.00;;;;;;5134922;27;20039;-27
2023/06/14 00:20:27;;;;;;;2.72;1.20;;;14.30;1.00;;;;;;5134998;27;20055;-27
2023/06/14 00:22:54;;;;;;;2.85;1.10;;;14.20;1.00;;;;;;5134529;27;20046;-27
2023/06/14 00:25:22;;;;;;;4.47;1.45;;;14.20;1.00;;;;;;5134493;27;20534;-27
2023/06/14 00:27:48;;;;;;;3.10;1.30;;;14.10;88.90;;;;;;5134836;27;20054;-27
2023/06/14 00:30:14;;;;;;;6.35;1.67;;;14.10;99.90;;;;;;5100040;28;20043;-26
2023/06/14 00:32:39;;;;;;;3.45;1.42;;;14.10;99.90;;;;;;5116716;28;20049;-25
2023/06/14 00:35:07;;;;;;;4.25;1.52;;;14.10;99.90;;;;;;5134706;27;20053;-26
2023/06/14 00:37:33;;;;;;;3.05;1.20;;;14.00;99.90;;;;;;5116504;28;20059;-28
2023/06/14 00:39:59;;;;;;;4.32;1.35;;;14.00;1.00;;;;;;5116602;28;20051;-28
2023/06/14 00:42:26;;;;;;;2.90;0.98;;;13.90;1.00;;;;;;5100449;28;20047;-28
2023/06/14 00:44:52;;;;;;;2.90;0.88;;;13.90;1.00;;;;;;5134670;28;20047;-28
2023/06/14 00:47:18;;;;;;;2.47;1.30;;;13.90;1.00;;;;;;5099245;28;20365;-27
2023/06/14 00:49:45;;;;;;;1.95;1.30;;;13.80;1.00;;;;;;5099566;28;20043;-28
2023/06/14 00:52:12;;;;;;;4.93;1.23;;;13.80;1.00;;;;;;5134576;28;20082;-28
2023/06/14 00:54:39;;;;;;;7.03;1.63;;;13.80;99.90;;;;;;5134517;28;20090;-29
2023/06/14 00:57:05;;;;;;;2.67;1.20;;;13.80;99.90;;;;;;5134474;28;20051;-28
2023/06/14 00:59:31;;;;;;;3.05;1.23;;;13.70;99.90;;;;;;5116106;28;20047;-28
2023/06/14 01:01:57;;;;;;;4.00;1.40;;;13.70;99.90;;;;;;5099194;28;20043;-28
2023/06/14 01:04:23;;;;;;;1.92;1.20;;;13.70;99.90;;;;;;5134133;28;20047;-29
2023/06/14 01:06:53;;;;;;;8.10;1.33;;;13.60;99.90;;;;;;5115853;28;20431;-28
2023/06/14 01:09:58;;;;;;;2.15;1.02;;;13.60;99.90;;;;;;5135506;28;20130;-29
2023/06/14 01:12:52;;;;;;;2.67;1.00;;;13.60;1.00;;;;;;5129525;28;20047;-28
2023/06/14 01:15:20;;;;;;;4.05;1.15;;;13.50;1.00;;;;;;5134403;28;20537;-28
2023/06/14 01:17:51;;;;;;;5.15;1.33;;;13.50;1.00;;;;;;5098937;27;20043;-28
2023/06/14 01:20:19;;;;;;;3.65;1.15;;;13.50;1.00;;;;;;5137859;27;20442;-29
2023/06/14 01:22:52;;;;;;;4.80;1.30;;;13.50;1.00;;;;;;5138795;27;20043;-29
2023/06/14 01:25:20;;;;;;;2.30;1.45;;;13.50;1.00;;;;;;5103492;27;20047;-28
2023/06/14 01:27:58;;;;;;;3.47;1.08;;;13.50;1.00;;;;;;5119870;27;20039;-28
2023/06/14 01:30:25;;;;;;;3.80;1.13;;;13.50;23.60;;;;;;5138185;27;20039;-29
2023/06/14 01:32:53;;;;;;;3.15;1.05;;;13.50;1.00;;;;;;5137801;27;20520;-28
2023/06/14 01:35:19;;;;;;;3.85;1.20;;;13.50;23.70;;;;;;5138033;27;20043;-28
2023/06/14 01:37:48;;;;;;;6.25;1.40;;;13.50;40.00;;;;;;5119661;27;20115;-28
2023/06/14 01:40:14;;;;;;;7.03;1.35;;;13.50;83.50;;;;;;5137970;27;20047;-28
2023/06/14 01:42:41;;;;;;;2.58;1.05;;;13.40;99.90;;;;;;5138741;27;20042;-28
2023/06/14 01:45:08;;;;;;;3.13;1.10;;;13.50;99.90;;;;;;5137879;27;20039;-28
2023/06/14 01:47:35;;;;;;;5.50;1.27;;;13.40;99.90;;;;;;5138657;27;20131;-28
2023/06/14 01:50:02;;;;;;;3.08;1.23;;;13.40;99.90;;;;;;5137738;27;20047;-29
2023/06/14 01:52:28;;;;;;;1.92;0.90;;;13.40;99.90;;;;;;5119307;27;20050;-28
2023/06/14 01:54:54;;;;;;;3.90;1.33;;;13.40;99.90;;;;;;5137661;27;20051;-28
2023/06/14 01:57:21;;;;;;;3.83;1.75;;;13.40;99.90;;;;;;5137555;27;20042;-28
2023/06/14 01:59:48;;;;;;;2.03;1.20;;;13.40;99.90;;;;;;5119544;27;20074;-29
2023/06/14 02:02:15;;;;;;;2.83;1.35;;;13.40;99.90;;;;;;5138082;27;20047;-28
2023/06/14 02:04:41;;;;;;;4.40;1.40;;;13.30;99.90;;;;;;5137157;27;20506;-29
2023/06/14 02:07:07;;;;;;;3.30;1.38;;;13.30;99.90;;;;;;5137414;27;20039;-28
2023/06/14 02:09:34;;;;;;;1.58;1.00;;;13.30;99.90;;;;;;5137393;27;20051;-28
2023/06/14 02:12:00;;;;;;;3.67;1.20;;;13.30;99.90;;;;;;5120159;27;20055;-28
2023/06/14 02:14:26;;;;;;;9.18;1.63;;;13.30;99.90;;;;;;5119165;27;20072;-28
2023/06/14 02:16:53;;;;;;;3.75;1.70;;;13.30;99.90;;;;;;5137142;27;20122;-28
2023/06/14 02:19:19;;;;;;;3.22;1.50;;;13.30;99.90;;;;;;5137263;27;20054;-29
2023/06/14 02:21:45;;;;;;;3.25;1.30;;;13.30;99.90;;;;;;5137708;27;20126;-29
2023/06/14 02:24:11;;;;;;;2.83;1.40;;;13.30;99.90;;;;;;5137222;27;20125;-28
2023/06/14 02:26:37;;;;;;;3.42;1.40;;;13.20;99.90;;;;;;5137466;27;20089;-29
2023/06/14 02:29:09;;;;;;;3.67;1.30;;;13.20;99.90;;;;;;5137014;27;20051;-28
2023/06/14 02:31:35;;;;;;;2.30;1.38;;;13.20;1.00;;;;;;5137006;27;20043;-28
2023/06/14 02:34:01;;;;;;;4.80;1.83;;;13.20;99.90;;;;;;5137739;27;20421;-29
2023/06/14 02:36:29;;;;;;;3.97;1.65;;;13.20;1.00;;;;;;5119522;27;20127;-29
2023/06/14 02:38:57;;;;;;;2.72;1.30;;;13.20;1.00;;;;;;5101833;27;20128;-28
2023/06/14 02:41:23;;;;;;;3.20;1.40;;;13.10;1.00;;;;;;5119268;27;20066;-28
2023/06/14 02:43:49;;;;;;;4.20;1.75;;;13.10;1.00;;;;;;5136744;27;20051;-29
2023/06/14 02:46:15;;;;;;;3.50;1.80;;;13.10;1.00;;;;;;5118851;27;20066;-29
2023/06/14 02:48:41;;;;;;;3.28;1.58;;;13.00;1.00;;;;;;5136609;27;20529;-28
2023/06/14 02:51:08;;;;;;;6.60;1.33;;;13.00;1.00;;;;;;5119238;27;20035;-30
2023/06/14 02:53:34;;;;;;;3.83;1.80;;;13.00;1.00;;;;;;5136549;27;20050;-28
2023/06/14 02:56:00;;;;;;;2.65;1.75;;;13.00;1.00;;;;;;5101257;27;20047;-28
2023/06/14 02:58:26;;;;;;;2.22;1.45;;;13.00;1.00;;;;;;5101167;27;20043;-28
2023/06/14 03:00:52;;;;;;;1.95;1.38;;;13.00;1.00;;;;;;5118395;27;20051;-28
2023/06/14 03:03:19;;;;;;;2.42;1.52;;;12.90;1.00;;;;;;5136387;27;20047;-28
2023/06/14 03:05:49;;;;;;;4.65;1.45;;;12.90;27.00;;;;;;5118699;27;20088;-28
2023/06/14 03:08:16;;;;;;;2.90;1.70;;;12.90;60.50;;;;;;5118842;27;20043;-28
2023/06/14 03:10:49;;;;;;;2.55;1.55;;;12.80;84.70;;;;;;5117927;27;20058;-28
2023/06/14 03:13:20;;;;;;;3.70;1.70;;;12.80;99.90;;;;;;5136159;27;20049;-28
2023/06/14 03:15:47;;;;;;;5.35;2.08;;;12.70;91.00;;;;;;5135993;27;20443;-28
2023/06/14 03:18:15;;;;;;;3.28;1.75;;;12.70;99.90;;;;;;5100536;27;20046;-29
2023/06/14 03:20:40;;;;;;;6.50;2.00;;;12.70;99.90;;;;;;5100503;27;20099;-28
2023/06/14 03:23:07;;;;;;;3.90;1.92;;;12.70;99.90;;;;;;5135720;27;20047;-28
2023/06/14 03:25:35;;;;;;;6.38;2.20;;;12.70;99.90;;;;;;5117354;27;20039;-28
2023/06/14 03:28:04;;;;;;;5.30;1.80;;;12.70;99.90;;;;;;5136338;27;20040;-28
2023/06/14 03:30:31;;;;;;;2.83;1.55;;;12.70;99.90;;;;;;5118011;27;20076;-28
2023/06/14 03:32:57;;;;;;;2.75;1.75;;;12.70;99.90;;;;;;5136022;27;20051;-29
2023/06/14 03:35:23;;;;;;;2.95;1.50;;;12.70;99.90;;;;;;5117446;27;20121;-28
2023/06/14 03:37:49;;;;;;;5.53;2.05;;;12.60;99.90;;;;;;5117040;27;20055;-28
2023/06/14 03:40:18;;;;;;;3.63;2.20;;;12.60;99.90;;;;;;5117507;27;20062;-28
2023/06/14 03:42:44;;;;;;;2.97;1.60;;;12.60;99.90;;;;;;5117607;27;20093;-28
2023/06/14 03:45:09;;;;;;;5.53;1.83;;;12.60;99.90;;;;;;5135800;27;20041;-28
2023/06/14 03:47:35;;;;;;;4.65;2.92;;;12.70;99.90;;;;;;5135430;27;20043;-28
2023/06/14 03:50:03;;;;;;;6.40;2.00;;;12.70;99.90;;;;;;5135361;27;20082;-28
2023/06/14 03:52:29;;;;;;;6.07;2.13;;;12.70;99.90;;;;;;5100254;27;20047;-28
2023/06/14 03:54:55;;;;;;;4.10;2.20;;;12.70;99.90;;;;;;5118024;27;20082;-28
2023/06/14 03:57:23;;;;;;;8.80;2.33;;;12.70;99.90;;;;;;5100084;27;20126;-28
2023/06/14 03:59:48;;;;;;;4.95;2.10;;;12.80;1.00;;;;;;5135044;27;20043;-28
2023/06/14 04:02:17;;;;;;;6.28;2.33;;;12.80;1.00;;;;;;5100887;27;20051;-28
2023/06/14 04:04:45;;;;;;;3.53;1.95;;;12.80;99.90;;;;;;5135093;27;20043;-28
2023/06/14 04:07:19;;;;;;;5.32;2.95;;;12.80;99.90;;;;;;5116834;27;20539;-28
2023/06/14 04:09:45;;;;;;;3.83;1.73;;;12.90;1.00;;;;;;5135185;27;20039;-27
2023/06/14 04:12:13;;;;;;;3.75;2.17;;;12.90;1.00;;;;;;5117782;27;20175;-28
2023/06/14 04:14:40;;;;;;;5.70;2.22;;;13.00;1.00;;;;;;5117145;27;20373;-28
2023/06/14 04:17:06;;;;;;;6.82;2.42;;;13.10;1.00;;;;;;5116516;27;20073;-28
2023/06/14 04:19:32;;;;;;;5.75;2.40;;;13.10;1.00;;;;;;5117447;27;20536;-28
2023/06/14 04:22:01;;;;;;;3.70;2.08;;;13.20;1.00;;;;;;5134815;27;20035;-28
2023/06/14 04:24:31;;;;;;;8.65;2.35;;;13.20;1.00;;;;;;5134763;27;20058;-27
2023/06/14 04:26:58;;;;;;;6.10;2.63;;;13.30;1.00;;;;;;5116989;27;20086;-27
2023/06/14 04:29:26;;;;;;;3.53;2.30;;;13.40;1.00;;;;;;5116674;27;20043;-27
2023/06/14 04:31:54;;;;;;;7.30;2.70;;;13.50;1.00;;;;;;5134759;27;20065;-28
2023/06/14 04:34:21;;;;;;;5.45;2.47;;;13.50;1.00;;;;;;5099673;28;20050;-28
2023/06/14 04:36:52;;;;;;;6.22;2.35;;;13.60;1.00;;;;;;5116503;28;20054;-28
2023/06/14 04:39:20;;;;;;;8.68;2.65;;;13.60;1.00;;;;;;5112699;28;20056;-28
2023/06/14 04:41:46;;;;;;;4.03;2.33;;;13.70;1.00;;;;;;5114116;28;20121;-28
2023/06/14 04:44:12;;;;;;;4.63;2.60;;;13.80;1.00;;;;;;5113377;28;20047;-27
2023/06/14 04:46:45;;;;;;;4.90;2.70;;;13.80;1.00;;;;;;5079589;28;20370;-27
2023/06/14 04:49:15;;;;;;;;;;;13.90;99.90;;;;;;5114446;28;20043;-28
2023/06/14 04:51:42;;;;;;;5.32;2.13;;;14.00;1.00;;;;;;5114486;28;19927;-28
2023/06/14 04:54:10;;;;;;;3.78;2.60;;;14.10;99.90;;;;;;5116768;28;20051;-28
2023/06/14 04:56:39;;;;;;;3.97;2.65;;;14.10;99.90;;;;;;5116985;28;20047;-28
2023/06/14 04:59:04;;;;;;;5.30;2.25;;;14.20;99.90;;;;;;5118158;28;20047;-28
2023/06/14 05:01:34;;;;;;;4.35;2.63;;;14.30;99.90;;;;;;5116900;28;20043;-28
2023/06/14 05:04:00;;;;;;;5.65;2.42;;;14.40;99.90;;;;;;5116889;28;20054;-29
2023/06/14 05:06:28;;;;;;;6.28;2.58;;;14.70;99.90;;;;;;5117983;28;20047;-27
2023/06/14 05:08:54;;;;;;;6.00;2.30;;;15.20;99.90;;;;;;5100141;28;20051;-29
2023/06/14 05:11:20;;;;;;;6.57;3.05;;;15.60;99.90;;;;;;5116649;28;20081;-28
2023/06/14 05:13:46;;;;;;;4.40;2.65;;;15.70;99.90;;;;;;5117917;28;20055;-28
2023/06/14 05:16:13;;;;;;;4.90;2.70;;;15.80;99.90;;;;;;5117696;28;20040;-28
2023/06/14 05:18:40;;;;;;;5.93;2.58;;;16.30;99.90;;;;;;5117698;28;20481;-28
2023/06/14 05:21:05;;;;;;;6.97;2.65;;;16.50;87.00;;;;;;5118211;28;20047;-28
2023/06/14 05:23:31;;;;;;;6.03;2.42;;;16.80;41.20;;;;;;5118033;28;20093;-28
2023/06/14 05:25:57;;;;;;;5.03;2.63;;;17.40;1.00;;;;;;5082830;28;20078;-28
2023/06/14 05:28:23;;;;;;;6.20;2.58;;;17.90;1.00;;;;;;5117966;28;20434;-29
2023/06/14 05:30:49;;;;;;;6.82;2.40;;;18.80;99.90;;;;;;5117669;28;20066;-28
2023/06/14 05:33:15;;;;;;;5.03;2.35;;;19.50;3.30;;;;;;5117513;28;20130;-29
2023/06/14 05:35:41;;;;;;;7.07;2.33;;;20.10;99.90;;;;;;5117450;28;20177;-28
2023/06/14 05:38:07;;;;;;;3.70;1.83;;;20.60;99.90;;;;;;5119980;27;20144;-28
2023/06/14 05:40:33;;;;;;;5.57;2.75;;;20.80;1.00;;;;;;5138015;27;20112;-29
2023/06/14 05:42:59;;;;;;;7.57;3.10;;;21.00;99.90;;;;;;5137853;27;20039;-28
2023/06/14 05:45:25;;;;;;;9.95;3.40;;;21.30;99.90;;;;;;5120601;27;20077;-28
2023/06/14 05:47:52;;;;;;;5.55;2.35;;;21.70;1.00;;;;;;5119757;27;20044;-28
2023/06/14 05:50:17;;;;;;;6.22;2.55;;;21.90;1.00;;;;;;5137375;27;20100;-28
2023/06/14 05:52:43;;;;;;;5.15;2.15;;;22.10;1.00;;;;;;5137657;27;20051;-28
2023/06/14 05:55:11;;;;;;;5.78;2.50;;;22.10;99.90;;;;;;5138253;27;20095;-28
2023/06/14 05:57:37;;;;;;;4.93;2.58;;;22.30;99.90;;;;;;5137500;27;20043;-28
2023/06/14 06:00:14;;;;;;;3.35;2.33;;;22.70;99.90;;;;;;5138322;27;20084;-29
2023/06/14 06:02:43;;;;;;;6.53;2.58;;;22.80;99.90;;;;;;5138112;27;20392;-29
2023/06/14 06:05:10;;;;;;;4.70;1.90;;;22.90;1.00;;;;;;5118987;27;20450;-28
2023/06/14 06:07:37;;;;;;;3.20;2.20;;;23.10;1.00;;;;;;5137237;27;20043;-29
2023/06/14 06:10:03;;;;;;;4.30;2.50;;;23.00;1.00;;;;;;5138419;27;20039;-28
2023/06/14 06:12:29;;;;;;;4.15;2.42;;;23.40;1.00;;;;;;5137274;27;20043;-28
2023/06/14 06:14:55;;;;;;;4.15;2.10;;;23.40;99.90;;;;;;5137162;27;20103;-28
2023/06/14 06:17:21;;;;;;;7.68;2.25;;;23.70;99.90;;;;;;5137123;27;20035;-30
2023/06/14 06:19:47;;;;;;;3.15;2.20;;;23.70;99.90;;;;;;5137883;27;20039;-28
2023/06/14 06:22:12;;;;;;;4.68;2.45;;;23.90;99.90;;;;;;5137142;27;20051;-28
2023/06/14 06:24:38;;;;;;;3.00;2.08;;;24.00;99.90;;;;;;5118893;27;20049;-28
2023/06/14 06:27:04;;;;;;;5.03;2.30;;;24.00;99.90;;;;;;5136977;27;20039;-29
2023/06/14 06:29:30;;;;;;;5.22;2.40;;;24.00;99.90;;;;;;5137524;27;20047;-29
2023/06/14 06:31:56;;;;;;;3.63;2.13;;;24.40;99.90;;;;;;5119006;27;20043;-28
2023/06/14 06:34:22;;;;;;;3.58;2.25;;;24.50;99.90;;;;;;5137377;27;20057;-28
2023/06/14 06:36:48;;;;;;;5.30;2.28;;;24.50;69.40;;;;;;5136991;27;20122;-28
2023/06/14 06:39:14;;;;;;;4.07;2.20;;;24.30;44.60;;;;;;5136572;27;20062;-28
2023/06/14 06:41:40;;;;;;;4.53;2.40;;;24.40;53.10;;;;;;5118624;27;20135;-28
2023/06/14 06:44:07;;;;;;;6.53;2.53;;;24.70;48.40;;;;;;5118538;27;20122;-28
2023/06/14 06:46:34;;;;;;;4.97;2.20;;;24.90;17.50;;;;;;5136687;27;20089;-28
2023/06/14 06:49:00;;;;;;;3.83;2.42;;;25.10;12.70;;;;;;5136565;27;20121;-28
2023/06/14 06:51:26;;;;;;;4.70;1.90;;;25.30;12.30;;;;;;5136473;27;20047;-28
2023/06/14 06:53:53;;;;;;;4.18;1.95;;;25.50;7.70;;;;;;5118221;27;20050;-28
2023/06/14 06:56:21;;;;;;;4.10;2.10;;;25.60;1.00;;;;;;5136431;27;20119;-30
2023/06/14 06:58:47;;;;;;;6.10;2.03;;;25.70;1.00;;;;;;5136611;27;20064;-29
2023/06/14 07:01:13;;;;;;;5.30;2.20;;;25.90;1.00;;;;;;5136415;27;20130;-29
2023/06/14 07:03:39;;;;;;;5.88;2.40;;;26.00;1.00;;;;;;5117897;27;20488;-29
2023/06/14 07:06:05;;;;;;;4.72;2.05;;;25.80;1.00;;;;;;5136183;27;20054;-28
2023/06/14 07:08:30;;;;;;;6.22;1.90;;;26.00;1.00;;;;;;5136224;27;20400;-28
2023/06/14 07:10:56;;;;;;;4.25;2.30;;;25.80;1.00;;;;;;5136146;27;20046;-28
2023/06/14 07:13:22;;;;;;;11.13;2.28;;;26.30;1.00;;;;;;5118019;27;20138;-28
2023/06/14 07:15:47;;;;;;;4.55;2.22;;;26.40;1.00;;;;;;5101490;27;20046;-28
2023/06/14 07:18:13;;;;;;;3.60;2.00;;;26.50;1.00;;;;;;5135050;27;20516;-29
2023/06/14 07:20:40;;;;;;;7.22;2.00;;;26.40;1.00;;;;;;5135955;27;20049;-29
2023/06/14 07:23:06;;;;;;;3.17;1.80;;;26.60;1.00;;;;;;5135808;27;20047;-29
2023/06/14 07:25:31;;;;;;;5.25;1.80;;;26.50;1.00;;;;;;5135879;27;20043;-30
2023/06/14 07:27:57;;;;;;;4.05;2.00;;;26.50;1.00;;;;;;5117940;27;20054;-28
2023/06/14 07:30:25;;;;;;;2.88;1.85;;;26.50;1.00;;;;;;5135779;27;20043;-28
2023/06/14 07:32:53;;;;;;;3.13;1.80;;;26.60;1.00;;;;;;5135850;27;20392;-28
2023/06/14 07:35:18;;;;;;;6.90;2.08;;;26.30;1.00;;;;;;5083784;27;20047;-28
2023/06/14 07:37:46;;;;;;;5.80;2.05;;;26.70;1.00;;;;;;5135455;27;20073;-29
2023/06/14 07:40:13;;;;;;;6.22;2.40;;;27.10;1.00;;;;;;5100449;27;20047;-28
2023/06/14 07:42:39;;;;;;;3.85;1.90;;;27.10;1.00;;;;;;5117735;27;20047;-29
2023/06/14 07:45:05;;;;;;;6.57;1.83;;;27.50;1.00;;;;;;5135550;27;20502;-26
2023/06/14 07:47:32;;;;;;;5.38;2.00;;;27.60;1.00;;;;;;5117339;27;20099;-29
2023/06/14 07:49:57;;;;;;;2.70;1.65;;;27.50;1.00;;;;;;5135369;27;20119;-28
2023/06/14 07:52:23;;;;;;;4.43;2.63;;;27.70;1.00;;;;;;5117148;27;20480;-28
2023/06/14 07:54:49;;;;;;;2.90;1.83;;;27.50;1.00;;;;;;5135273;27;20396;-29
2023/06/14 07:57:14;;;;;;;5.25;2.30;;;27.40;1.00;;;;;;5116956;27;20130;-28
2023/06/14 07:59:40;;;;;;;3.30;1.55;;;27.40;1.00;;;;;;5135565;27;20043;-28
2023/06/14 08:02:06;;;;;;;5.90;1.83;;;27.40;1.00;;;;;;5135135;27;20050;-28
2023/06/14 08:04:32;;;;;;;4.47;1.73;;;27.40;1.00;;;;;;5135094;27;20039;-28
2023/06/14 08:06:59;;;;;;;3.67;1.27;;;27.30;99.90;;;;;;5100008;27;20082;-29
2023/06/14 08:09:25;;;;;;;5.40;1.75;;;27.80;1.00;;;;;;5135086;27;20058;-28
2023/06/14 08:11:51;;;;;;;2.60;1.40;;;27.60;1.00;;;;;;5135208;27;20047;-28
2023/06/14 08:14:16;;;;;;;5.55;1.58;;;27.70;99.90;;;;;;5135022;27;20043;-29
2023/06/14 08:16:42;;;;;;;4.45;1.90;;;27.70;1.00;;;;;;5134739;27;20073;-28
2023/06/14 08:19:08;;;;;;;2.08;1.27;;;27.40;99.90;;;;;;5134838;27;20039;-28
2023/06/14 08:21:36;;;;;;;5.13;1.83;;;27.70;99.90;;;;;;5135311;27;20103;-28
2023/06/14 08:24:02;;;;;;;6.90;1.90;;;27.70;1.00;;;;;;5134699;27;20051;-28
2023/06/14 08:26:31;;;;;;;4.10;1.63;;;27.70;99.90;;;;;;5134856;27;20070;-28
2023/06/14 08:28:57;;;;;;;5.72;1.45;;;27.70;99.90;;;;;;5135028;27;20484;-29
2023/06/14 08:31:27;;;;;;;2.28;1.60;;;28.00;1.00;;;;;;5116447;28;20082;-27
2023/06/14 08:33:53;;;;;;;4.38;1.90;;;28.00;99.90;;;;;;5135562;27;20043;-29
2023/06/14 08:36:18;;;;;;;5.85;1.75;;;28.20;1.00;;;;;;5134679;27;20116;-29
2023/06/14 08:38:45;;;;;;;5.18;1.60;;;28.30;1.00;;;;;;5134548;27;20092;-28
2023/06/14 08:41:13;;;;;;;4.97;2.08;;;28.50;1.00;;;;;;5134110;27;20063;-29
2023/06/14 08:43:39;;;;;;;4.18;1.85;;;28.80;99.90;;;;;;5134619;28;20054;-28
2023/06/14 08:46:08;;;;;;;4.97;1.20;;;28.70;1.00;;;;;;5116333;28;20039;-28
2023/06/14 08:48:34;;;;;;;3.92;1.63;;;28.70;1.00;;;;;;5134575;28;20047;-28
2023/06/14 08:51:03;;;;;;;8.98;1.77;;;28.60;99.90;;;;;;5099276;28;20481;-28
2023/06/14 08:53:33;;;;;;;3.10;1.73;;;28.50;99.90;;;;;;5135026;28;20043;-28
2023/06/14 08:56:04;;;;;;;6.55;1.73;;;28.50;99.90;;;;;;5134598;28;20107;-29
2023/06/14 08:58:31;;;;;;;4.07;1.55;;;28.30;99.90;;;;;;5135056;28;20078;-28
2023/06/14 09:01:03;;;;;;;3.75;1.77;;;28.20;99.90;;;;;;5134453;28;20168;-29
2023/06/14 09:03:32;;;;;;;4.20;1.52;;;28.10;99.90;;;;;;5134681;28;20090;-28
2023/06/14 09:05:58;;;;;;;5.22;1.60;;;28.20;99.90;;;;;;5116185;28;20095;-28
2023/06/14 09:08:25;;;;;;;4.97;1.52;;;28.40;99.90;;;;;;5134298;28;20118;-29
2023/06/14 09:10:51;;;;;;;3.80;1.25;;;28.60;99.90;;;;;;5135137;28;20055;-28
2023/06/14 09:13:18;;;;;;;3.92;1.60;;;28.60;99.90;;;;;;5134299;28;20046;-28
2023/06/14 09:15:43;;;;;;;5.88;1.92;;;28.60;99.90;;;;;;5134046;28;20511;-28
2023/06/14 09:18:09;;;;;;;2.63;1.35;;;28.70;99.90;;;;;;5134192;28;20035;-28
2023/06/14 09:20:35;;;;;;;3.63;1.50;;;29.00;99.90;;;;;;5134783;28;20096;-28
2023/06/14 09:23:02;;;;;;;4.95;1.85;;;28.70;1.00;;;;;;5134152;27;20047;-28
2023/06/14 09:25:28;;;;;;;8.52;2.10;;;28.70;1.00;;;;;;5134985;28;20057;-29
2023/06/14 09:27:54;;;;;;;2.78;1.80;;;28.90;1.00;;;;;;5134147;28;20481;-28
2023/06/14 09:30:21;;;;;;;5.72;1.40;;;28.60;99.90;;;;;;5116080;28;20051;-31
2023/06/14 09:32:46;;;;;;;7.53;2.28;;;28.40;99.90;;;;;;5134136;28;20047;-28
2023/06/14 09:35:17;;;;;;;4.60;1.67;;;28.40;99.90;;;;;;5134102;28;20100;-29
2023/06/14 09:37:43;;;;;;;2.28;1.38;;;28.50;1.00;;;;;;5134126;28;20043;-28
2023/06/14 09:40:09;;;;;;;4.70;1.52;;;28.90;1.00;;;;;;5135130;27;20055;-28
2023/06/14 09:42:36;;;;;;;4.80;1.58;;;29.10;1.00;;;;;;5085919;27;20051;-28
2023/06/14 09:45:04;;;;;;;4.85;1.80;;;29.10;1.00;;;;;;5138364;27;20047;-28
2023/06/14 09:47:29;;;;;;;4.68;1.88;;;29.50;1.00;;;;;;5137896;27;20043;-29
2023/06/14 09:49:55;;;;;;;6.95;1.58;;;29.30;1.00;;;;;;5137735;27;20060;-29
2023/06/14 09:52:22;;;;;;;3.50;1.48;;;29.40;1.00;;;;;;5137696;27;20141;-28
2023/06/14 09:54:49;;;;;;;8.05;1.98;;;29.10;1.00;;;;;;5137919;27;20179;-28
2023/06/14 09:57:20;;;;;;;4.07;1.17;;;28.90;1.00;;;;;;5137582;27;20158;-29
2023/06/14 09:59:50;;;;;;;3.35;1.55;;;28.90;1.00;;;;;;5137442;27;20047;-29
2023/06/14 10:02:27;;;;;;;2.90;1.27;;;28.90;1.00;;;;;;5137385;27;20050;-29
2023/06/14 10:05:08;;;;;;;7.22;1.60;;;29.20;1.00;;;;;;5137424;27;20050;-28
2023/06/14 10:08:00;;;;;;;5.60;1.55;;;29.20;1.00;;;;;;5119371;27;20388;-28
2023/06/14 10:10:25;;;;;;;3.72;1.50;;;29.10;1.00;;;;;;5137905;27;20043;-29
2023/06/14 10:12:52;;;;;;;3.33;1.42;;;28.90;1.00;;;;;;5102116;27;20119;-29
2023/06/14 10:15:46;;;;;;;3.63;1.35;;;29.00;1.00;;;;;;5118947;27;20043;-28
2023/06/14 10:18:31;;;;;;;4.53;1.75;;;29.10;99.90;;;;;;5137737;27;20046;-29
2023/06/14 10:21:20;;;;;;;2.55;1.25;;;29.10;99.90;;;;;;5119323;27;20047;-29
2023/06/14 10:23:47;;;;;;;8.93;2.20;;;29.20;1.00;;;;;;5088610;27;20054;-29
2023/06/14 10:26:23;;;;;;;1.95;1.23;;;29.40;1.00;;;;;;5119004;27;20062;-28
2023/06/14 10:28:58;;;;;;;3.80;1.70;;;29.30;99.90;;;;;;5137104;27;20050;-28
2023/06/14 10:31:43;;;;;;;3.22;1.65;;;29.00;99.90;;;;;;5118790;27;20078;-28
2023/06/14 10:34:11;;;;;;;1.80;1.42;;;29.10;99.90;;;;;;5119160;27;20050;-28
2023/06/14 10:36:40;;;;;;;3.10;1.48;;;29.10;1.00;;;;;;5137092;27;20105;-28
2023/06/14 10:39:08;;;;;;;4.13;1.55;;;29.20;1.00;;;;;;5102527;27;20050;-28
2023/06/14 10:41:40;;;;;;;4.93;1.48;;;29.50;1.00;;;;;;5136734;27;20140;-28
2023/06/14 10:44:21;;;;;;;4.15;1.40;;;29.70;1.00;;;;;;5136772;27;20043;-29
2023/06/14 10:46:48;;;;;;;3.95;1.48;;;29.50;99.90;;;;;;5137244;27;20043;-28
2023/06/14 10:49:20;;;;;;;5.95;1.55;;;29.40;99.90;;;;;;5118495;27;20047;-29
2023/06/14 10:51:52;;;;;;;4.50;1.40;;;29.30;99.90;;;;;;5136330;27;20071;-28
2023/06/14 10:54:21;;;;;;;;;;;29.40;99.90;;;;;;5137449;27;20171;-28
2023/06/14 10:56:52;;;;;;;5.78;1.60;;;28.90;99.90;;;;;;5136359;27;19919;-28
2023/06/14 10:59:22;;;;;;;3.55;1.40;;;29.30;99.90;;;;;;5136430;27;20114;-33
2023/06/14 11:01:58;;;;;;;6.43;1.52;;;29.30;99.90;;;;;;5118743;27;20039;-28
2023/06/14 11:05:05;;;;;;;5.03;1.30;;;29.50;99.90;;;;;;5136956;27;20082;-29
2023/06/14 11:07:48;;;;;;;6.57;1.38;;;29.70;1.00;;;;;;5080754;27;20115;-28
2023/06/14 11:10:42;;;;;;;4.32;1.50;;;29.80;1.00;;;;;;5119029;27;20065;-30
2023/06/14 11:13:09;;;;;;;4.88;1.50;;;29.60;99.90;;;;;;5118567;27;20043;-29
2023/06/14 11:15:43;;;;;;;5.75;1.65;;;29.40;99.90;;;;;;5118267;27;20047;-30
2023/06/14 11:18:11;;;;;;;1.75;1.05;;;29.40;99.90;;;;;;5135926;27;20042;-29
2023/06/14 11:20:37;;;;;;;3.58;1.42;;;29.30;99.90;;;;;;5117871;27;20126;-29
2023/06/14 11:23:03;;;;;;;2.67;1.33;;;29.40;99.90;;;;;;5135901;27;20085;-28
2023/06/14 11:25:29;;;;;;;1.98;1.40;;;29.60;99.90;;;;;;5135844;27;20043;-29
2023/06/14 11:27:55;;;;;;;2.45;1.30;;;29.20;99.90;;;;;;5136206;27;20062;-29
2023/06/14 11:30:22;;;;;;;5.75;1.45;;;29.40;99.90;;;;;;5135746;27;20043;-29
2023/06/14 11:32:52;;;;;;;3.95;1.40;;;29.50;99.90;;;;;;5135750;27;20058;-29
2023/06/14 11:35:22;;;;;;;8.95;1.70;;;29.60;99.90;;;;;;5136234;27;20066;-28
2023/06/14 11:37:48;;;;;;;4.45;1.60;;;29.80;99.90;;;;;;5135630;27;20047;-29
2023/06/14 11:40:14;;;;;;;2.40;1.40;;;30.00;99.90;;;;;;5135585;27;20477;-28
2023/06/14 11:42:43;;;;;;;4.13;1.30;;;29.60;99.90;;;;;;5118111;27;20438;-29
2023/06/14 11:45:11;;;;;;;4.60;1.23;;;29.30;99.90;;;;;;5136435;27;20085;-29
2023/06/14 11:47:40;;;;;;;4.03;1.40;;;28.50;99.90;;;;;;5135482;27;20082;-28
2023/06/14 11:50:11;;;;;;;3.92;1.38;;;28.40;99.90;;;;;;5135411;27;20548;-29
2023/06/14 11:52:37;;;;;;;3.05;1.48;;;28.30;99.90;;;;;;5135602;27;20472;-28
2023/06/14 11:55:06;;;;;;;2.95;1.30;;;28.30;99.90;;;;;;5135403;27;20042;-28
2023/06/14 11:57:36;;;;;;;4.80;1.50;;;28.50;99.90;;;;;;5135240;27;20065;-29
2023/06/14 12:00:11;;;;;;;5.28;1.10;;;28.30;99.90;;;;;;5135210;27;20122;-29
2023/06/14 12:02:38;;;;;;;4.70;1.30;;;28.70;99.90;;;;;;5116914;27;20043;-29
2023/06/14 12:05:07;;;;;;;1.85;1.05;;;29.30;99.90;;;;;;5135528;27;20047;-28
2023/06/14 12:07:33;;;;;;;10.95;1.50;;;30.20;99.90;;;;;;5135322;27;20433;-28
2023/06/14 12:09:59;;;;;;;2.00;1.20;;;30.50;99.90;;;;;;5117046;27;20082;-28
2023/06/14 12:12:25;;;;;;;3.72;1.10;;;30.60;99.90;;;;;;5117176;27;20083;-29
2023/06/14 12:14:52;;;;;;;3.00;1.10;;;30.30;99.90;;;;;;5135252;27;20385;-30
2023/06/14 12:17:19;;;;;;;1.55;1.02;;;30.80;99.90;;;;;;5135252;27;20122;-29
2023/06/14 12:19:46;;;;;;;2.50;1.13;;;30.70;99.90;;;;;;5100056;27;20472;-28
2023/06/14 12:22:13;;;;;;;4.88;1.10;;;31.00;99.90;;;;;;5134896;27;20035;-29
2023/06/14 12:24:42;;;;;;;3.45;1.48;;;30.70;99.90;;;;;;5116540;27;20117;-28
2023/06/14 12:27:08;;;;;;;1.30;0.80;;;30.80;99.90;;;;;;5116693;27;20541;-29
2023/06/14 12:29:34;;;;;;;3.70;0.90;;;30.60;99.90;;;;;;5100070;28;20043;-30
2023/06/14 12:32:00;;;;;;;3.05;0.85;;;30.60;99.90;;;;;;5134752;27;20055;-29
2023/06/14 12:34:27;;;;;;;4.43;1.13;;;31.10;99.90;;;;;;5134627;27;20095;-28
2023/06/14 12:36:57;;;;;;;2.55;1.00;;;31.20;99.90;;;;;;5134530;27;20146;-29
2023/06/14 12:39:23;;;;;;;1.65;0.80;;;31.00;99.90;;;;;;5116613;27;20051;-28
2023/06/14 12:41:48;;;;;;;1.92;1.00;;;31.00;99.90;;;;;;5135280;27;20393;-28
2023/06/14 12:44:15;;;;;;;2.80;1.02;;;31.10;99.90;;;;;;5134672;27;20473;-28
2023/06/14 12:46:44;;;;;;;2.60;1.10;;;31.20;99.90;;;;;;5134600;28;20042;-28
2023/06/14 12:49:11;;;;;;;3.15;1.08;;;31.40;99.90;;;;;;5116547;28;20111;-28
2023/06/14 12:51:38;;;;;;;2.53;0.80;;;31.10;99.90;;;;;;5116463;28;20392;-28
2023/06/14 12:54:04;;;;;;;1.90;0.93;;;29.60;99.90;;;;;;5135110;28;20054;-28